sensor_id;sensor_type;location;lat;lon;timestamp;P1;durP1;ratioP1;P2;durP2;ratioP2
77802;SDS011;66993;48.256;16.422;2023-06-04T00:03:48;6.5;;;2.9;;
77802;SDS011;66993;48.256;16.422;2023-06-04T00:08:49;6.3;;;3.1;;
77802;SDS011;66993;48.256;16.422;2023-06-04T00:13:50;6.5;;;3.3;;
77802;SDS011;66993;48.256;16.422;2023-06-04T00:18:51;6.7;;;3.2;;
77802;SDS011;66993;48.256;16.422;2023-06-04T00:23:53;5.4;;;2.6;;
77802;SDS011;66993;48.256;16.422;2023-06-04T00:28:54;6.5;;;3.3;;
77802;SDS011;66993;48.256;16.422;2023-06-04T00:33:55;6.9;;;3.2;;
77802;SDS011;66993;48.256;16.422;2023-06-04T00:38:56;6.5;;;3.4;;
77802;SDS011;66993;48.256;16.422;2023-06-04T00:43:57;6.5;;;3.4;;
77802;SDS011;66993;48.256;16.422;2023-06-04T00:48:59;6.4;;;3.0;;
77802;SDS011;66993;48.256;16.422;2023-06-04T00:54:00;6.9;;;3.8;;
77802;SDS011;66993;48.256;16.422;2023-06-04T00:59:01;7.5;;;3.5;;
77802;SDS011;66993;48.256;16.422;2023-06-04T01:04:02;6.1;;;3.6;;
77802;SDS011;66993;48.256;16.422;2023-06-04T01:09:04;6.6;;;3.3;;
77802;SDS011;66993;48.256;16.422;2023-06-04T01:14:05;6.8;;;3.7;;
77802;SDS011;66993;48.256;16.422;2023-06-04T01:19:11;6.2;;;3.1;;
77802;SDS011;66993;48.256;16.422;2023-06-04T01:24:07;6.5;;;3.4;;
77802;SDS011;66993;48.256;16.422;2023-06-04T01:29:08;7.4;;;3.8;;
77802;SDS011;66993;48.256;16.422;2023-06-04T01:34:09;7.6;;;3.2;;
77802;SDS011;66993;48.256;16.422;2023-06-04T01:39:11;6.6;;;3.1;;
77802;SDS011;66993;48.256;16.422;2023-06-04T01:44:12;6.9;;;3.8;;
77802;SDS011;66993;48.256;16.422;2023-06-04T01:49:13;6.3;;;3.2;;
77802;SDS011;66993;48.256;16.422;2023-06-04T01:54:15;5.9;;;3.4;;
77802;SDS011;66993;48.256;16.422;2023-06-04T01:59:15;7.4;;;3.4;;
77802;SDS011;66993;48.256;16.422;2023-06-04T02:04:17;6.6;;;3.0;;
77802;SDS011;66993;48.256;16.422;2023-06-04T02:09:18;5.6;;;3.3;;
77802;SDS011;66993;48.256;16.422;2023-06-04T02:14:20;5.9;;;3.1;;
77802;SDS011;66993;48.256;16.422;2023-06-04T02:19:20;8.1;;;4.0;;
77802;SDS011;66993;48.256;16.422;2023-06-04T02:24:22;6.8;;;3.3;;
77802;SDS011;66993;48.256;16.422;2023-06-04T02:29:23;6.9;;;3.3;;
77802;SDS011;66993;48.256;16.422;2023-06-04T02:34:25;7.1;;;3.7;;
77802;SDS011;66993;48.256;16.422;2023-06-04T02:39:25;5.0;;;3.0;;
77802;SDS011;66993;48.256;16.422;2023-06-04T02:44:26;6.9;;;4.0;;
77802;SDS011;66993;48.256;16.422;2023-06-04T02:49:28;6.7;;;4.0;;
77802;SDS011;66993;48.256;16.422;2023-06-04T02:54:30;7.8;;;3.5;;
77802;SDS011;66993;48.256;16.422;2023-06-04T02:59:30;6.8;;;3.6;;
77802;SDS011;66993;48.256;16.422;2023-06-04T03:04:31;6.1;;;3.3;;
77802;SDS011;66993;48.256;16.422;2023-06-04T03:09:33;7.0;;;3.7;;
77802;SDS011;66993;48.256;16.422;2023-06-04T03:14:34;7.2;;;3.4;;
77802;SDS011;66993;48.256;16.422;2023-06-04T03:19:35;6.7;;;3.2;;
77802;SDS011;66993;48.256;16.422;2023-06-04T03:24:36;5.3;;;3.3;;
77802;SDS011;66993;48.256;16.422;2023-06-04T03:29:37;6.4;;;3.7;;
77802;SDS011;66993;48.256;16.422;2023-06-04T03:34:39;6.5;;;3.8;;
77802;SDS011;66993;48.256;16.422;2023-06-04T03:39:40;8.7;;;3.4;;
77802;SDS011;66993;48.256;16.422;2023-06-04T03:44:41;7.5;;;3.2;;
77802;SDS011;66993;48.256;16.422;2023-06-04T03:49:42;10.8;;;3.8;;
77802;SDS011;66993;48.256;16.422;2023-06-04T03:54:44;10.2;;;3.4;;
77802;SDS011;66993;48.256;16.422;2023-06-04T03:59:45;7.7;;;3.6;;
77802;SDS011;66993;48.256;16.422;2023-06-04T04:04:46;7.7;;;3.7;;
77802;SDS011;66993;48.256;16.422;2023-06-04T04:09:48;7.9;;;3.2;;
77802;SDS011;66993;48.256;16.422;2023-06-04T04:14:48;7.6;;;3.5;;
77802;SDS011;66993;48.256;16.422;2023-06-04T04:19:50;5.7;;;3.2;;
77802;SDS011;66993;48.256;16.422;2023-06-04T04:24:51;7.1;;;3.7;;
77802;SDS011;66993;48.256;16.422;2023-06-04T04:29:52;7.9;;;3.5;;
77802;SDS011;66993;48.256;16.422;2023-06-04T04:34:54;6.6;;;3.2;;
77802;SDS011;66993;48.256;16.422;2023-06-04T04:39:55;6.5;;;3.6;;
77802;SDS011;66993;48.256;16.422;2023-06-04T04:44:56;7.0;;;3.4;;
77802;SDS011;66993;48.256;16.422;2023-06-04T04:49:57;8.2;;;3.6;;
77802;SDS011;66993;48.256;16.422;2023-06-04T04:55:04;9.8;;;3.7;;
77802;SDS011;66993;48.256;16.422;2023-06-04T05:00:00;7.9;;;3.5;;
77802;SDS011;66993;48.256;16.422;2023-06-04T05:05:01;8.2;;;3.8;;
77802;SDS011;66993;48.256;16.422;2023-06-04T05:10:02;9.1;;;3.8;;
77802;SDS011;66993;48.256;16.422;2023-06-04T05:15:03;7.8;;;4.2;;
77802;SDS011;66993;48.256;16.422;2023-06-04T05:20:05;9.2;;;3.9;;
77802;SDS011;66993;48.256;16.422;2023-06-04T05:25:06;8.3;;;3.2;;
77802;SDS011;66993;48.256;16.422;2023-06-04T05:30:08;7.3;;;4.0;;
77802;SDS011;66993;48.256;16.422;2023-06-04T05:35:08;7.6;;;3.5;;
77802;SDS011;66993;48.256;16.422;2023-06-04T05:40:10;7.2;;;3.8;;
77802;SDS011;66993;48.256;16.422;2023-06-04T05:45:10;7.7;;;4.1;;
77802;SDS011;66993;48.256;16.422;2023-06-04T05:50:12;6.7;;;3.3;;
77802;SDS011;66993;48.256;16.422;2023-06-04T05:55:13;8.4;;;3.9;;
77802;SDS011;66993;48.256;16.422;2023-06-04T06:00:15;9.3;;;4.1;;
77802;SDS011;66993;48.256;16.422;2023-06-04T06:05:15;8.3;;;3.9;;
77802;SDS011;66993;48.256;16.422;2023-06-04T06:10:17;11.1;;;4.0;;
77802;SDS011;66993;48.256;16.422;2023-06-04T06:15:18;7.3;;;3.5;;
77802;SDS011;66993;48.256;16.422;2023-06-04T06:20:19;8.6;;;3.7;;
77802;SDS011;66993;48.256;16.422;2023-06-04T06:25:20;8.1;;;3.7;;
77802;SDS011;66993;48.256;16.422;2023-06-04T06:30:22;6.9;;;3.7;;
77802;SDS011;66993;48.256;16.422;2023-06-04T06:35:23;7.0;;;3.7;;
77802;SDS011;66993;48.256;16.422;2023-06-04T06:40:24;8.9;;;3.7;;
77802;SDS011;66993;48.256;16.422;2023-06-04T06:45:25;6.4;;;3.2;;
77802;SDS011;66993;48.256;16.422;2023-06-04T06:50:27;6.7;;;3.5;;
77802;SDS011;66993;48.256;16.422;2023-06-04T06:55:28;9.1;;;4.1;;
77802;SDS011;66993;48.256;16.422;2023-06-04T07:00:29;6.8;;;3.2;;
77802;SDS011;66993;48.256;16.422;2023-06-04T07:05:30;7.0;;;3.4;;
77802;SDS011;66993;48.256;16.422;2023-06-04T07:10:31;7.4;;;3.7;;
77802;SDS011;66993;48.256;16.422;2023-06-04T07:15:32;9.1;;;3.4;;
77802;SDS011;66993;48.256;16.422;2023-06-04T07:20:34;7.2;;;3.9;;
77802;SDS011;66993;48.256;16.422;2023-06-04T07:25:35;5.8;;;3.6;;
77802;SDS011;66993;48.256;16.422;2023-06-04T07:30:37;7.7;;;3.6;;
77802;SDS011;66993;48.256;16.422;2023-06-04T07:35:37;6.4;;;3.4;;
77802;SDS011;66993;48.256;16.422;2023-06-04T07:40:38;7.7;;;3.6;;
77802;SDS011;66993;48.256;16.422;2023-06-04T07:45:39;7.2;;;3.9;;
77802;SDS011;66993;48.256;16.422;2023-06-04T07:50:41;8.4;;;3.5;;
77802;SDS011;66993;48.256;16.422;2023-06-04T07:55:42;7.1;;;3.3;;
77802;SDS011;66993;48.256;16.422;2023-06-04T08:00:43;5.5;;;3.2;;
77802;SDS011;66993;48.256;16.422;2023-06-04T08:05:44;7.2;;;3.9;;
77802;SDS011;66993;48.256;16.422;2023-06-04T08:10:46;6.0;;;3.4;;
77802;SDS011;66993;48.256;16.422;2023-06-04T08:15:47;7.6;;;3.6;;
77802;SDS011;66993;48.256;16.422;2023-06-04T08:20:48;6.1;;;3.4;;
77802;SDS011;66993;48.256;16.422;2023-06-04T08:25:49;5.2;;;3.1;;
77802;SDS011;66993;48.256;16.422;2023-06-04T08:30:51;5.8;;;3.8;;
77802;SDS011;66993;48.256;16.422;2023-06-04T08:35:52;8.8;;;3.7;;
77802;SDS011;66993;48.256;16.422;2023-06-04T08:40:53;5.8;;;3.6;;
77802;SDS011;66993;48.256;16.422;2023-06-04T08:45:57;7.6;;;3.4;;
77802;SDS011;66993;48.256;16.422;2023-06-04T08:50:56;5.5;;;3.2;;
77802;SDS011;66993;48.256;16.422;2023-06-04T08:55:57;7.8;;;3.3;;
77802;SDS011;66993;48.256;16.422;2023-06-04T09:00:58;7.6;;;3.2;;
77802;SDS011;66993;48.256;16.422;2023-06-04T09:05:59;6.3;;;3.2;;
77802;SDS011;66993;48.256;16.422;2023-06-04T09:11:00;4.9;;;2.6;;
77802;SDS011;66993;48.256;16.422;2023-06-04T09:16:01;6.3;;;3.2;;
77802;SDS011;66993;48.256;16.422;2023-06-04T09:21:03;9.2;;;2.9;;
77802;SDS011;66993;48.256;16.422;2023-06-04T09:26:07;5.8;;;3.2;;
77802;SDS011;66993;48.256;16.422;2023-06-04T09:31:07;7.1;;;3.1;;
77802;SDS011;66993;48.256;16.422;2023-06-04T09:36:06;7.0;;;3.0;;
77802;SDS011;66993;48.256;16.422;2023-06-04T09:41:11;4.9;;;3.1;;
77802;SDS011;66993;48.256;16.422;2023-06-04T09:46:10;7.0;;;3.2;;
77802;SDS011;66993;48.256;16.422;2023-06-04T09:51:13;5.2;;;3.0;;
77802;SDS011;66993;48.256;16.422;2023-06-04T09:56:11;6.1;;;3.2;;
77802;SDS011;66993;48.256;16.422;2023-06-04T10:01:12;6.1;;;3.2;;
77802;SDS011;66993;48.256;16.422;2023-06-04T10:06:14;9.6;;;3.6;;
77802;SDS011;66993;48.256;16.422;2023-06-04T10:11:16;5.9;;;3.0;;
77802;SDS011;66993;48.256;16.422;2023-06-04T10:16:16;7.1;;;3.4;;
77802;SDS011;66993;48.256;16.422;2023-06-04T10:21:17;7.7;;;3.1;;
77802;SDS011;66993;48.256;16.422;2023-06-04T10:26:18;5.5;;;2.9;;
77802;SDS011;66993;48.256;16.422;2023-06-04T10:31:20;8.5;;;3.1;;
77802;SDS011;66993;48.256;16.422;2023-06-04T10:36:21;5.5;;;2.8;;
77802;SDS011;66993;48.256;16.422;2023-06-04T10:41:22;8.7;;;3.0;;
77802;SDS011;66993;48.256;16.422;2023-06-04T10:46:23;7.4;;;2.8;;
77802;SDS011;66993;48.256;16.422;2023-06-04T10:51:29;5.6;;;2.6;;
77802;SDS011;66993;48.256;16.422;2023-06-04T10:56:26;5.1;;;2.5;;
77802;SDS011;66993;48.256;16.422;2023-06-04T11:01:27;6.0;;;2.7;;
77802;SDS011;66993;48.256;16.422;2023-06-04T11:06:28;5.0;;;2.8;;
77802;SDS011;66993;48.256;16.422;2023-06-04T11:11:29;5.6;;;3.1;;
77802;SDS011;66993;48.256;16.422;2023-06-04T11:16:31;6.6;;;2.8;;
77802;SDS011;66993;48.256;16.422;2023-06-04T11:21:34;6.9;;;3.0;;
77802;SDS011;66993;48.256;16.422;2023-06-04T11:26:33;7.0;;;2.6;;
77802;SDS011;66993;48.256;16.422;2023-06-04T11:36:35;6.9;;;3.1;;
77802;SDS011;66993;48.256;16.422;2023-06-04T11:41:37;5.3;;;3.1;;
77802;SDS011;66993;48.256;16.422;2023-06-04T11:46:40;7.9;;;3.3;;
77802;SDS011;66993;48.256;16.422;2023-06-04T11:51:39;6.4;;;2.9;;
77802;SDS011;66993;48.256;16.422;2023-06-04T11:56:40;7.5;;;3.3;;
77802;SDS011;66993;48.256;16.422;2023-06-04T12:01:41;6.2;;;2.9;;
77802;SDS011;66993;48.256;16.422;2023-06-04T12:06:51;5.8;;;2.7;;
77802;SDS011;66993;48.256;16.422;2023-06-04T12:11:44;6.7;;;2.9;;
77802;SDS011;66993;48.256;16.422;2023-06-04T12:21:46;6.5;;;3.0;;
77802;SDS011;66993;48.256;16.422;2023-06-04T12:26:47;7.0;;;3.2;;
77802;SDS011;66993;48.256;16.422;2023-06-04T12:31:49;6.5;;;3.1;;
77802;SDS011;66993;48.256;16.422;2023-06-04T12:36:50;4.7;;;2.9;;
77802;SDS011;66993;48.256;16.422;2023-06-04T12:41:51;5.1;;;2.9;;
77802;SDS011;66993;48.256;16.422;2023-06-04T12:46:52;6.9;;;3.2;;
77802;SDS011;66993;48.256;16.422;2023-06-04T12:51:53;8.0;;;3.0;;
77802;SDS011;66993;48.256;16.422;2023-06-04T12:56:54;5.8;;;2.7;;
77802;SDS011;66993;48.256;16.422;2023-06-04T13:01:56;6.9;;;3.5;;
77802;SDS011;66993;48.256;16.422;2023-06-04T13:06:57;5.5;;;2.8;;
77802;SDS011;66993;48.256;16.422;2023-06-04T13:11:58;5.4;;;3.3;;
77802;SDS011;66993;48.256;16.422;2023-06-04T13:16:59;7.9;;;3.2;;
77802;SDS011;66993;48.256;16.422;2023-06-04T13:22:00;7.3;;;3.2;;
77802;SDS011;66993;48.256;16.422;2023-06-04T13:27:02;6.7;;;3.2;;
77802;SDS011;66993;48.256;16.422;2023-06-04T13:32:03;6.2;;;3.3;;
77802;SDS011;66993;48.256;16.422;2023-06-04T13:37:04;7.2;;;3.3;;
77802;SDS011;66993;48.256;16.422;2023-06-04T13:42:06;6.2;;;3.0;;
77802;SDS011;66993;48.256;16.422;2023-06-04T13:47:06;6.5;;;3.0;;
77802;SDS011;66993;48.256;16.422;2023-06-04T13:52:08;7.6;;;3.7;;
77802;SDS011;66993;48.256;16.422;2023-06-04T13:57:09;8.0;;;3.8;;
77802;SDS011;66993;48.256;16.422;2023-06-04T14:02:10;6.7;;;3.6;;
77802;SDS011;66993;48.256;16.422;2023-06-04T14:07:11;7.5;;;3.6;;
77802;SDS011;66993;48.256;16.422;2023-06-04T14:12:13;6.8;;;3.6;;
77802;SDS011;66993;48.256;16.422;2023-06-04T14:17:15;6.9;;;4.2;;
77802;SDS011;66993;48.256;16.422;2023-06-04T14:22:15;6.8;;;3.3;;
77802;SDS011;66993;48.256;16.422;2023-06-04T14:27:16;5.9;;;3.4;;
77802;SDS011;66993;48.256;16.422;2023-06-04T14:32:18;9.3;;;3.6;;
77802;SDS011;66993;48.256;16.422;2023-06-04T14:37:20;6.0;;;3.2;;
77802;SDS011;66993;48.256;16.422;2023-06-04T14:42:20;6.2;;;3.5;;
77802;SDS011;66993;48.256;16.422;2023-06-04T14:47:22;6.5;;;3.3;;
77802;SDS011;66993;48.256;16.422;2023-06-04T14:52:23;7.1;;;3.6;;
77802;SDS011;66993;48.256;16.422;2023-06-04T14:57:24;7.7;;;3.5;;
77802;SDS011;66993;48.256;16.422;2023-06-04T15:02:25;8.8;;;3.7;;
77802;SDS011;66993;48.256;16.422;2023-06-04T15:07:27;7.2;;;3.8;;
77802;SDS011;66993;48.256;16.422;2023-06-04T15:12:28;7.7;;;3.6;;
77802;SDS011;66993;48.256;16.422;2023-06-04T15:17:29;7.9;;;3.7;;
77802;SDS011;66993;48.256;16.422;2023-06-04T15:22:30;6.9;;;3.9;;
77802;SDS011;66993;48.256;16.422;2023-06-04T15:27:31;5.9;;;3.6;;
77802;SDS011;66993;48.256;16.422;2023-06-04T15:32:33;7.9;;;3.6;;
77802;SDS011;66993;48.256;16.422;2023-06-04T15:37:34;6.0;;;4.0;;
77802;SDS011;66993;48.256;16.422;2023-06-04T15:42:35;7.6;;;4.2;;
77802;SDS011;66993;48.256;16.422;2023-06-04T15:47:37;5.7;;;3.7;;
77802;SDS011;66993;48.256;16.422;2023-06-04T15:52:37;7.2;;;3.7;;
77802;SDS011;66993;48.256;16.422;2023-06-04T15:57:39;6.9;;;4.0;;
77802;SDS011;66993;48.256;16.422;2023-06-04T16:02:40;6.2;;;3.7;;
77802;SDS011;66993;48.256;16.422;2023-06-04T16:07:42;6.5;;;3.7;;
77802;SDS011;66993;48.256;16.422;2023-06-04T16:12:42;5.9;;;3.7;;
77802;SDS011;66993;48.256;16.422;2023-06-04T16:17:45;7.2;;;3.6;;
77802;SDS011;66993;48.256;16.422;2023-06-04T16:22:45;7.2;;;4.2;;
77802;SDS011;66993;48.256;16.422;2023-06-04T16:27:47;6.6;;;4.1;;
77802;SDS011;66993;48.256;16.422;2023-06-04T16:32:47;7.6;;;4.5;;
77802;SDS011;66993;48.256;16.422;2023-06-04T16:37:49;6.1;;;3.8;;
77802;SDS011;66993;48.256;16.422;2023-06-04T16:42:50;7.5;;;4.1;;
77802;SDS011;66993;48.256;16.422;2023-06-04T16:47:52;8.5;;;4.3;;
77802;SDS011;66993;48.256;16.422;2023-06-04T16:52:52;6.7;;;4.0;;
77802;SDS011;66993;48.256;16.422;2023-06-04T16:57:54;6.6;;;4.0;;
77802;SDS011;66993;48.256;16.422;2023-06-04T17:02:55;7.8;;;4.3;;
77802;SDS011;66993;48.256;16.422;2023-06-04T17:07:56;8.7;;;4.9;;
77802;SDS011;66993;48.256;16.422;2023-06-04T17:12:58;7.4;;;4.4;;
77802;SDS011;66993;48.256;16.422;2023-06-04T17:17:59;7.9;;;4.4;;
77802;SDS011;66993;48.256;16.422;2023-06-04T17:23:00;8.1;;;4.8;;
77802;SDS011;66993;48.256;16.422;2023-06-04T17:28:02;7.1;;;4.4;;
77802;SDS011;66993;48.256;16.422;2023-06-04T17:33:03;7.7;;;4.4;;
77802;SDS011;66993;48.256;16.422;2023-06-04T17:38:05;7.9;;;4.9;;
77802;SDS011;66993;48.256;16.422;2023-06-04T17:43:05;8.7;;;4.8;;
77802;SDS011;66993;48.256;16.422;2023-06-04T17:48:07;6.6;;;4.5;;
77802;SDS011;66993;48.256;16.422;2023-06-04T17:53:07;9.6;;;5.3;;
77802;SDS011;66993;48.256;16.422;2023-06-04T17:58:09;8.1;;;4.8;;
77802;SDS011;66993;48.256;16.422;2023-06-04T18:03:11;8.2;;;5.4;;
77802;SDS011;66993;48.256;16.422;2023-06-04T18:08:11;10.1;;;5.5;;
77802;SDS011;66993;48.256;16.422;2023-06-04T18:13:13;8.7;;;5.5;;
77802;SDS011;66993;48.256;16.422;2023-06-04T18:18:14;10.7;;;5.5;;
77802;SDS011;66993;48.256;16.422;2023-06-04T18:23:15;9.1;;;5.4;;
77802;SDS011;66993;48.256;16.422;2023-06-04T18:28:16;9.0;;;5.8;;
77802;SDS011;66993;48.256;16.422;2023-06-04T18:33:18;8.8;;;6.0;;
77802;SDS011;66993;48.256;16.422;2023-06-04T18:38:19;8.2;;;5.4;;
77802;SDS011;66993;48.256;16.422;2023-06-04T18:43:20;10.0;;;6.0;;
77802;SDS011;66993;48.256;16.422;2023-06-04T18:48:21;9.9;;;5.9;;
77802;SDS011;66993;48.256;16.422;2023-06-04T18:53:23;10.1;;;5.5;;
77802;SDS011;66993;48.256;16.422;2023-06-04T18:58:24;14.7;;;7.3;;
77802;SDS011;66993;48.256;16.422;2023-06-04T19:03:25;16.4;;;8.5;;
77802;SDS011;66993;48.256;16.422;2023-06-04T19:08:27;9.1;;;5.9;;
77802;SDS011;66993;48.256;16.422;2023-06-04T19:13:28;13.0;;;6.9;;
77802;SDS011;66993;48.256;16.422;2023-06-04T19:18:34;9.6;;;6.4;;
77802;SDS011;66993;48.256;16.422;2023-06-04T19:23:30;9.8;;;5.6;;
77802;SDS011;66993;48.256;16.422;2023-06-04T19:28:31;10.5;;;6.4;;
77802;SDS011;66993;48.256;16.422;2023-06-04T19:33:33;9.7;;;6.3;;
77802;SDS011;66993;48.256;16.422;2023-06-04T19:38:34;11.9;;;6.3;;
77802;SDS011;66993;48.256;16.422;2023-06-04T19:43:36;7.9;;;5.7;;
77802;SDS011;66993;48.256;16.422;2023-06-04T19:48:36;8.4;;;5.1;;
77802;SDS011;66993;48.256;16.422;2023-06-04T19:53:38;9.0;;;5.2;;
77802;SDS011;66993;48.256;16.422;2023-06-04T19:58:39;8.8;;;4.9;;
77802;SDS011;66993;48.256;16.422;2023-06-04T20:03:41;7.6;;;4.5;;
77802;SDS011;66993;48.256;16.422;2023-06-04T20:08:41;7.9;;;5.3;;
77802;SDS011;66993;48.256;16.422;2023-06-04T20:13:43;7.2;;;5.0;;
77802;SDS011;66993;48.256;16.422;2023-06-04T20:18:45;7.5;;;5.2;;
77802;SDS011;66993;48.256;16.422;2023-06-04T20:23:45;7.5;;;4.9;;
77802;SDS011;66993;48.256;16.422;2023-06-04T20:28:46;8.6;;;5.0;;
77802;SDS011;66993;48.256;16.422;2023-06-04T20:33:48;10.2;;;5.0;;
77802;SDS011;66993;48.256;16.422;2023-06-04T20:38:49;8.6;;;5.1;;
77802;SDS011;66993;48.256;16.422;2023-06-04T20:43:50;8.4;;;5.3;;
77802;SDS011;66993;48.256;16.422;2023-06-04T20:48:52;8.4;;;5.5;;
77802;SDS011;66993;48.256;16.422;2023-06-04T20:53:52;8.4;;;5.3;;
77802;SDS011;66993;48.256;16.422;2023-06-04T20:58:54;9.9;;;5.1;;
77802;SDS011;66993;48.256;16.422;2023-06-04T21:03:55;9.1;;;5.2;;
77802;SDS011;66993;48.256;16.422;2023-06-04T21:08:56;10.7;;;5.7;;
77802;SDS011;66993;48.256;16.422;2023-06-04T21:13:58;8.8;;;5.8;;
77802;SDS011;66993;48.256;16.422;2023-06-04T21:18:59;10.6;;;5.5;;
77802;SDS011;66993;48.256;16.422;2023-06-04T21:24:00;9.5;;;6.2;;
77802;SDS011;66993;48.256;16.422;2023-06-04T21:29:01;9.5;;;5.8;;
77802;SDS011;66993;48.256;16.422;2023-06-04T21:34:03;9.8;;;5.8;;
77802;SDS011;66993;48.256;16.422;2023-06-04T21:39:04;10.0;;;5.8;;
77802;SDS011;66993;48.256;16.422;2023-06-04T21:44:05;10.4;;;6.0;;
77802;SDS011;66993;48.256;16.422;2023-06-04T21:49:07;10.8;;;6.0;;
77802;SDS011;66993;48.256;16.422;2023-06-04T21:54:07;9.3;;;6.1;;
77802;SDS011;66993;48.256;16.422;2023-06-04T21:59:09;10.3;;;6.3;;
77802;SDS011;66993;48.256;16.422;2023-06-04T22:04:10;9.7;;;5.9;;
77802;SDS011;66993;48.256;16.422;2023-06-04T22:09:11;10.6;;;6.4;;
77802;SDS011;66993;48.256;16.422;2023-06-04T22:14:12;11.0;;;6.7;;
77802;SDS011;66993;48.256;16.422;2023-06-04T22:19:14;10.3;;;6.6;;
77802;SDS011;66993;48.256;16.422;2023-06-04T22:24:15;10.6;;;7.2;;
77802;SDS011;66993;48.256;16.422;2023-06-04T22:29:17;11.2;;;7.5;;
77802;SDS011;66993;48.256;16.422;2023-06-04T22:34:17;10.6;;;7.2;;
77802;SDS011;66993;48.256;16.422;2023-06-04T22:39:19;11.0;;;7.8;;
77802;SDS011;66993;48.256;16.422;2023-06-04T22:44:20;11.6;;;6.8;;
77802;SDS011;66993;48.256;16.422;2023-06-04T22:49:21;9.7;;;6.7;;
77802;SDS011;66993;48.256;16.422;2023-06-04T22:54:23;10.3;;;6.7;;
77802;SDS011;66993;48.256;16.422;2023-06-04T22:59:24;11.0;;;6.5;;
77802;SDS011;66993;48.256;16.422;2023-06-04T23:04:25;11.0;;;7.3;;
77802;SDS011;66993;48.256;16.422;2023-06-04T23:09:26;11.7;;;7.5;;
77802;SDS011;66993;48.256;16.422;2023-06-04T23:14:27;13.6;;;7.6;;
77802;SDS011;66993;48.256;16.422;2023-06-04T23:19:29;12.7;;;8.6;;
77802;SDS011;66993;48.256;16.422;2023-06-04T23:24:30;11.1;;;7.2;;
77802;SDS011;66993;48.256;16.422;2023-06-04T23:29:31;10.8;;;7.3;;
77802;SDS011;66993;48.256;16.422;2023-06-04T23:34:32;11.7;;;8.3;;
77802;SDS011;66993;48.256;16.422;2023-06-04T23:39:34;12.2;;;8.9;;
77802;SDS011;66993;48.256;16.422;2023-06-04T23:44:35;13.2;;;8.5;;
77802;SDS011;66993;48.256;16.422;2023-06-04T23:49:37;15.8;;;9.8;;
77802;SDS011;66993;48.256;16.422;2023-06-04T23:54:37;13.8;;;10.3;;
77802;SDS011;66993;48.256;16.422;2023-06-04T23:59:39;14.2;;;9.5;;
